Henderson, Minnesota
Current Conditions -  °F | °C
As of 8:54 AM on Tuesday 21 Oct 2014 (Local Time) from KGYL Reporting Station
Clear Clear  
Wind Chill: 39°   Ceiling: Unl
Heat Index: 43°   Visibility: 10mi
Dew Point: 41°   Wind: 6mph
Humidity: 93%   Direction: 100°E
Pressure: 30.16"   Gusts: NA
Location:  44.53°N, 93.91°W
Report Text: KGYL 211354Z AUTO 10005KT 10SM CLR 06/05 A3016 RMK AO2 T00600050
Loading
Personal Weather Stations






























Interactive Weather Map
Tropical Storm Tracking
New forecast layout! Learn more

10-Day Weather Forecast

Advertisements
Track Severe Weather on mobile